Time;durP1;ratioP1;P1;durP2;ratioP2;P2;SDS_P1;SDS_P2;PMS_P1;PMS_P2;Temp;Humidity;BMP_temperature;BMP_pressure;BME280_temperature;BME280_humidity;BME280_pressure;Samples;Min_cycle;Max_cycle;Signal;HPM_P1;HPM_P2
2022/06/10 00:00:57;;;;;;;17.67;2.92;;;13.30;99.90;;;;;;4890151;29;20052;-58
2022/06/10 00:03:27;;;;;;;17.40;3.70;;;13.30;99.90;;;;;;4893375;29;20493;-58
2022/06/10 00:05:58;;;;;;;25.58;3.30;;;13.30;99.90;;;;;;4894124;29;20057;-58
2022/06/10 00:08:30;;;;;;;18.25;2.85;;;13.30;99.90;;;;;;4895832;29;20056;-58
2022/06/10 00:10:58;;;;;;;10.98;2.35;;;13.20;99.90;;;;;;4896176;29;20524;-59
2022/06/10 00:13:29;;;;;;;12.65;2.47;;;13.20;99.90;;;;;;4895228;29;20075;-59
2022/06/10 00:15:57;;;;;;;27.77;4.10;;;13.20;99.90;;;;;;4892121;29;20048;-58
2022/06/10 00:18:27;;;;;;;16.73;3.00;;;13.20;99.90;;;;;;4896194;29;20040;-58
2022/06/10 00:20:56;;;;;;;18.42;3.00;;;13.10;99.90;;;;;;4892878;29;20049;-58
2022/06/10 00:23:24;;;;;;;17.83;4.32;;;13.20;99.90;;;;;;4894064;29;20065;-58
2022/06/10 00:25:51;;;;;;;20.10;2.90;;;13.10;99.90;;;;;;4894070;29;20066;-58
2022/06/10 00:28:19;;;;;;;13.35;2.60;;;13.10;99.90;;;;;;4894800;29;20070;-58
2022/06/10 00:30:47;;;;;;;11.10;2.72;;;13.00;99.90;;;;;;4889926;29;20056;-58
2022/06/10 00:33:14;;;;;;;19.33;3.05;;;13.00;99.90;;;;;;4893485;29;20079;-57
2022/06/10 00:35:43;;;;;;;20.92;3.45;;;13.00;99.90;;;;;;4895292;29;20048;-58
2022/06/10 00:38:11;;;;;;;22.33;2.90;;;12.90;99.90;;;;;;4893232;29;20053;-58
2022/06/10 00:40:43;;;;;;;21.10;3.67;;;12.90;99.90;;;;;;4889348;29;20060;-58
2022/06/10 00:43:16;;;;;;;28.73;4.28;;;12.90;99.90;;;;;;4896759;29;20048;-58
2022/06/10 00:45:54;;;;;;;17.50;2.70;;;12.90;99.90;;;;;;4894240;29;20065;-58
2022/06/10 00:48:25;;;;;;;17.08;3.83;;;12.80;99.90;;;;;;4894987;29;20509;-58
2022/06/10 00:50:55;;;;;;;15.27;2.65;;;12.80;99.90;;;;;;4893436;29;20048;-58
2022/06/10 00:53:32;;;;;;;18.00;3.17;;;12.80;99.90;;;;;;4893520;29;20056;-59
2022/06/10 00:56:05;;;;;;;15.57;3.08;;;12.80;99.90;;;;;;4892586;29;20049;-58
2022/06/10 00:58:40;;;;;;;20.35;3.38;;;12.80;99.90;;;;;;4894337;29;20048;-58
2022/06/10 01:01:10;;;;;;;15.20;2.72;;;12.80;99.90;;;;;;4888896;29;20060;-58
2022/06/10 01:03:40;;;;;;;17.02;3.55;;;12.80;99.90;;;;;;4889388;29;20041;-58
2022/06/10 01:06:09;;;;;;;;;;;12.80;99.90;;;;;;4890749;29;20061;-58
2022/06/10 01:08:39;;;;;;;23.15;3.22;;;12.70;99.90;;;;;;4895734;29;19924;-58
2022/06/10 01:11:25;;;;;;;20.83;3.75;;;12.70;99.90;;;;;;4895646;29;20040;-59
2022/06/10 01:14:16;;;;;;;24.13;3.58;;;12.70;99.90;;;;;;4892996;29;20045;-57
2022/06/10 01:16:47;;;;;;;21.20;3.03;;;12.60;99.90;;;;;;4893359;29;20513;-57
2022/06/10 01:19:33;;;;;;;15.63;3.42;;;12.60;99.90;;;;;;4894357;29;20060;-57
2022/06/10 01:22:19;;;;;;;19.55;3.20;;;12.60;99.90;;;;;;4884446;29;20053;-58
2022/06/10 01:24:50;;;;;;;23.33;3.05;;;12.50;99.90;;;;;;4893928;29;20048;-58
2022/06/10 01:27:50;;;;;;;19.15;3.38;;;12.50;99.90;;;;;;4894676;29;20056;-59
2022/06/10 01:30:36;;;;;;;22.63;3.53;;;12.50;99.90;;;;;;4876020;29;20048;-58
2022/06/10 01:33:19;;;;;;;16.75;2.92;;;12.50;99.90;;;;;;4885364;29;20068;-59
2022/06/10 01:36:15;;;;;;;18.42;2.97;;;12.40;99.90;;;;;;4896260;29;20048;-58
2022/06/10 01:38:49;;;;;;;24.33;3.78;;;12.40;99.90;;;;;;4888104;29;20052;-58
2022/06/10 01:42:01;;;;;;;26.35;4.57;;;12.40;99.90;;;;;;4895598;29;20400;-58
2022/06/10 01:44:32;;;;;;;22.50;3.45;;;12.40;99.90;;;;;;4877283;29;20056;-59
2022/06/10 01:47:13;;;;;;;21.02;4.28;;;12.40;99.90;;;;;;4895604;29;20041;-58
2022/06/10 01:49:45;;;;;;;25.27;3.85;;;12.30;99.90;;;;;;4895458;29;20052;-58
2022/06/10 01:52:44;;;;;;;24.08;3.15;;;12.30;99.90;;;;;;4893290;29;20044;-59
2022/06/10 01:55:32;;;;;;;27.95;4.30;;;12.30;99.90;;;;;;4844675;29;20064;-59
2022/06/10 01:58:07;;;;;;;24.30;3.83;;;12.20;99.90;;;;;;4893632;29;20048;-58
2022/06/10 02:00:40;;;;;;;16.50;3.42;;;12.20;99.90;;;;;;4878914;29;20060;-59
2022/06/10 02:03:24;;;;;;;32.15;3.55;;;12.20;99.90;;;;;;4897004;29;20040;-58
2022/06/10 02:06:41;;;;;;;21.42;2.80;;;12.20;99.90;;;;;;4897410;29;20064;-58
2022/06/10 02:09:13;;;;;;;21.38;2.97;;;12.20;99.90;;;;;;4892579;29;20060;-58
2022/06/10 02:11:46;;;;;;;30.77;4.43;;;12.10;99.90;;;;;;4895671;29;20064;-58
2022/06/10 02:14:40;;;;;;;22.00;4.05;;;12.10;99.90;;;;;;4893986;29;20037;-59
2022/06/10 02:17:12;;;;;;;21.75;4.68;;;12.10;99.90;;;;;;4895987;29;20055;-59
2022/06/10 02:19:45;;;;;;;22.35;3.30;;;12.10;99.90;;;;;;4891785;29;20045;-56
2022/06/10 02:22:47;;;;;;;23.95;3.47;;;12.00;99.90;;;;;;4891630;29;20052;-56
2022/06/10 02:25:24;;;;;;;22.80;4.25;;;12.00;99.90;;;;;;4891178;29;20052;-56
2022/06/10 02:28:00;;;;;;;27.52;3.28;;;12.00;99.90;;;;;;4892201;29;20642;-56
2022/06/10 02:31:11;;;;;;;16.85;3.10;;;11.90;99.90;;;;;;4895901;29;20059;-57
2022/06/10 02:33:39;;;;;;;22.67;3.15;;;11.90;99.90;;;;;;4888393;29;20055;-57
2022/06/10 02:36:15;;;;;;;29.95;4.15;;;11.90;99.90;;;;;;4892034;29;20048;-56
2022/06/10 02:38:54;;;;;;;22.48;3.65;;;11.80;99.90;;;;;;4894385;29;20438;-56
2022/06/10 02:42:02;;;;;;;23.17;4.20;;;11.80;99.90;;;;;;4894583;29;20057;-58
2022/06/10 02:44:54;;;;;;;21.00;3.13;;;11.80;99.90;;;;;;4894735;29;20036;-58
2022/06/10 02:47:33;;;;;;;21.33;3.45;;;11.70;99.90;;;;;;4893926;29;20059;-58
2022/06/10 02:50:02;;;;;;;23.98;4.18;;;11.70;99.90;;;;;;4907588;29;20071;-59
2022/06/10 02:52:33;;;;;;;24.23;3.67;;;11.70;99.90;;;;;;4895066;29;20056;-57
2022/06/10 02:55:07;;;;;;;22.15;4.05;;;11.60;99.90;;;;;;4899713;29;20045;-57
2022/06/10 03:03:29;;;;;;;29.58;3.60;;;11.50;99.90;;;;;;4893745;29;20040;-58
2022/06/10 03:06:25;;;;;;;22.80;4.03;;;11.50;99.90;;;;;;4894971;29;20052;-57
2022/06/10 03:09:33;;;;;;;16.27;2.90;;;11.50;99.90;;;;;;4894027;29;20056;-58
2022/06/10 03:12:28;;;;;;;26.23;3.88;;;11.40;99.90;;;;;;4860678;29;20525;-58
2022/06/10 03:14:58;;;;;;;23.17;3.67;;;11.40;99.90;;;;;;4895083;29;20063;-58
2022/06/10 03:17:41;;;;;;;19.52;3.95;;;11.30;99.90;;;;;;4894251;29;20416;-59
2022/06/10 03:20:40;;;;;;;24.92;3.45;;;11.20;99.90;;;;;;4895020;29;20057;-59
2022/06/10 03:23:29;;;;;;;17.73;3.53;;;11.20;99.90;;;;;;4894038;29;20060;-58
2022/06/10 03:26:06;;;;;;;29.73;4.40;;;11.10;99.90;;;;;;4893761;29;20053;-58
2022/06/10 03:28:57;;;;;;;15.85;3.15;;;11.00;99.90;;;;;;4893512;29;20497;-58
2022/06/10 03:31:36;;;;;;;25.50;4.13;;;11.00;99.90;;;;;;4894259;29;20057;-58
2022/06/10 03:34:10;;;;;;;25.93;4.17;;;11.00;99.90;;;;;;4894274;29;20424;-58
2022/06/10 03:36:37;;;;;;;26.92;3.88;;;11.10;99.90;;;;;;4895699;29;20049;-58
2022/06/10 03:39:06;;;;;;;33.15;5.15;;;11.20;99.90;;;;;;4893025;29;20131;-59
2022/06/10 03:41:41;;;;;;;29.25;5.07;;;11.30;99.90;;;;;;4885699;29;20126;-58
2022/06/10 03:44:15;;;;;;;19.75;3.78;;;11.30;99.90;;;;;;4880762;29;20040;-59
2022/06/10 03:46:48;;;;;;;24.33;4.18;;;11.40;99.90;;;;;;4892724;29;20405;-58
2022/06/10 03:49:20;;;;;;;31.98;5.05;;;11.50;99.90;;;;;;4893245;29;20045;-58
2022/06/10 03:51:48;;;;;;;35.63;5.05;;;11.50;99.90;;;;;;4894926;29;20061;-58
2022/06/10 03:54:19;;;;;;;22.10;4.00;;;11.60;99.90;;;;;;4881622;29;20044;-58
2022/06/10 03:56:46;;;;;;;;;;;11.70;99.90;;;;;;4894149;29;20048;-59
2022/06/10 03:59:14;;;;;;;24.63;3.80;;;11.70;99.90;;;;;;4893782;29;20396;-58
2022/06/10 04:01:41;;;;;;;19.98;3.92;;;11.70;99.90;;;;;;4894670;29;20049;-58
2022/06/10 04:04:09;;;;;;;33.58;4.47;;;11.80;99.90;;;;;;4893557;29;20044;-58
2022/06/10 04:06:37;;;;;;;25.70;4.10;;;11.80;99.90;;;;;;4894628;29;20059;-58
2022/06/10 04:09:25;;;;;;;28.17;4.18;;;11.80;99.90;;;;;;4883642;29;20429;-58
2022/06/10 04:11:53;;;;;;;23.92;5.85;;;11.90;99.90;;;;;;4893698;29;20060;-58
2022/06/10 04:14:20;;;;;;;19.67;4.13;;;11.90;99.90;;;;;;4892904;29;20433;-58
2022/06/10 04:16:48;;;;;;;24.00;4.80;;;12.00;99.90;;;;;;4897501;29;20433;-58
2022/06/10 04:19:16;;;;;;;23.15;5.00;;;12.00;99.90;;;;;;4897309;29;20048;-58
2022/06/10 04:21:44;;;;;;;19.77;4.10;;;12.00;99.90;;;;;;4896042;29;20063;-58
2022/06/10 04:24:11;;;;;;;36.97;4.72;;;12.00;99.90;;;;;;4896718;29;20064;-58
2022/06/10 04:26:39;;;;;;;25.17;6.03;;;12.00;99.90;;;;;;4897356;29;20055;-58
2022/06/10 04:29:08;;;;;;;28.90;4.30;;;12.00;99.90;;;;;;4897893;29;20489;-58
2022/06/10 04:31:37;;;;;;;28.17;4.53;;;12.00;99.90;;;;;;4896827;29;21493;-58
2022/06/10 04:34:05;;;;;;;28.40;4.57;;;12.00;99.90;;;;;;4896007;29;20044;-59
2022/06/10 04:36:33;;;;;;;28.08;4.68;;;12.00;99.90;;;;;;4896932;29;20299;-58
2022/06/10 04:39:00;;;;;;;27.85;4.65;;;12.00;99.90;;;;;;4896427;29;20040;-58
2022/06/10 04:41:28;;;;;;;23.00;5.45;;;12.10;99.90;;;;;;4898302;29;20045;-58
2022/06/10 04:43:56;;;;;;;23.70;4.65;;;12.10;99.90;;;;;;4896753;29;20049;-58
2022/06/10 04:46:28;;;;;;;20.30;3.78;;;12.20;99.90;;;;;;4891756;29;20052;-58
2022/06/10 04:48:55;;;;;;;24.08;4.47;;;12.20;99.90;;;;;;4878008;29;20072;-58
2022/06/10 04:51:23;;;;;;;26.25;3.85;;;12.30;99.90;;;;;;4882903;29;20045;-59
2022/06/10 04:53:51;;;;;;;21.75;3.78;;;12.30;99.90;;;;;;4878602;29;20056;-59
2022/06/10 04:56:19;;;;;;;25.77;3.97;;;12.30;99.90;;;;;;4893388;29;20072;-58
2022/06/10 04:58:47;;;;;;;23.35;3.63;;;12.30;99.90;;;;;;4892026;29;20049;-58
2022/06/10 05:01:14;;;;;;;37.00;5.20;;;12.30;99.90;;;;;;4891135;29;20051;-58
2022/06/10 05:03:42;;;;;;;28.52;3.80;;;12.30;99.90;;;;;;4886909;29;20054;-58
2022/06/10 05:06:10;;;;;;;31.50;3.95;;;12.20;99.90;;;;;;4890253;29;20048;-57
2022/06/10 05:08:38;;;;;;;32.58;4.47;;;12.30;99.90;;;;;;4890825;29;20041;-58
2022/06/10 05:11:07;;;;;;;26.92;4.15;;;12.30;99.90;;;;;;4893063;29;20520;-57
2022/06/10 05:13:36;;;;;;;25.55;3.85;;;12.30;99.90;;;;;;4872721;29;20430;-57
2022/06/10 05:16:05;;;;;;;30.75;5.65;;;12.30;99.90;;;;;;4893376;29;20067;-56
2022/06/10 05:18:33;;;;;;;17.75;4.00;;;12.30;99.90;;;;;;4891913;29;20067;-57
2022/06/10 05:21:01;;;;;;;20.48;4.13;;;12.30;99.90;;;;;;4892758;29;20052;-56
2022/06/10 05:23:28;;;;;;;19.73;3.22;;;12.30;99.90;;;;;;4890922;29;20060;-57
2022/06/10 05:25:56;;;;;;;20.77;4.63;;;12.30;99.90;;;;;;4890032;29;20528;-57
2022/06/10 05:28:24;;;;;;;21.75;3.42;;;12.40;99.90;;;;;;4892210;29;20067;-57
2022/06/10 05:30:52;;;;;;;23.58;4.07;;;12.40;99.90;;;;;;4892707;29;20060;-58
2022/06/10 05:33:20;;;;;;;31.40;4.80;;;12.40;99.90;;;;;;4891913;29;20060;-59
2022/06/10 05:35:48;;;;;;;13.63;3.10;;;12.40;99.90;;;;;;4890424;29;20048;-58
2022/06/10 05:38:16;;;;;;;29.65;3.90;;;12.50;99.90;;;;;;4890023;29;20524;-58
2022/06/10 05:40:44;;;;;;;22.85;3.47;;;12.60;99.90;;;;;;4885743;29;20056;-58
2022/06/10 05:43:12;;;;;;;33.45;3.63;;;12.60;99.90;;;;;;4887656;29;20091;-58
2022/06/10 05:45:42;;;;;;;23.23;3.90;;;12.60;99.90;;;;;;4885122;29;20049;-56
2022/06/10 05:48:11;;;;;;;22.25;3.25;;;12.60;99.90;;;;;;4884131;29;20044;-57
2022/06/10 05:50:41;;;;;;;26.45;4.07;;;12.70;99.90;;;;;;4890981;29;20048;-57
2022/06/10 05:53:12;;;;;;;26.20;4.40;;;12.70;99.90;;;;;;4885637;29;20532;-57
2022/06/10 05:55:40;;;;;;;22.77;3.70;;;12.80;99.90;;;;;;4887469;29;20052;-57
2022/06/10 05:58:10;;;;;;;22.55;3.10;;;12.90;99.90;;;;;;4894513;29;20044;-57
2022/06/10 06:00:37;;;;;;;26.88;3.40;;;12.90;99.90;;;;;;4891456;29;20052;-57
2022/06/10 06:03:05;;;;;;;27.35;3.60;;;12.80;99.90;;;;;;4886496;29;20040;-57
2022/06/10 06:05:34;;;;;;;21.67;4.38;;;12.80;99.90;;;;;;4886162;29;20049;-57
2022/06/10 06:08:02;;;;;;;26.35;3.85;;;12.80;99.90;;;;;;4894428;29;20071;-58
2022/06/10 06:10:30;;;;;;;20.58;3.65;;;12.90;99.90;;;;;;4889669;29;20057;-59
2022/06/10 06:12:57;;;;;;;24.02;3.97;;;12.90;99.90;;;;;;4887693;29;20413;-58
2022/06/10 06:15:26;;;;;;;27.15;3.22;;;13.00;99.90;;;;;;4886941;29;20578;-58
2022/06/10 06:17:55;;;;;;;18.40;3.50;;;13.10;99.90;;;;;;4885550;29;21048;-58
2022/06/10 06:20:23;;;;;;;14.40;2.40;;;13.30;99.90;;;;;;4891804;29;20044;-59
2022/06/10 06:22:53;;;;;;;25.75;4.15;;;13.50;99.90;;;;;;4891766;29;20060;-58
2022/06/10 06:25:21;;;;;;;20.00;3.75;;;13.60;99.90;;;;;;4888802;29;20049;-59
2022/06/10 06:27:50;;;;;;;25.75;3.85;;;13.60;99.90;;;;;;4889734;29;20044;-60
2022/06/10 06:30:31;;;;;;;21.13;4.57;;;13.70;99.90;;;;;;4893082;29;20056;-59
2022/06/10 06:33:02;;;;;;;26.42;3.63;;;13.70;99.90;;;;;;4888579;29;20052;-59
2022/06/10 06:35:32;;;;;;;27.27;3.13;;;13.70;99.90;;;;;;4881402;29;20048;-59
2022/06/10 06:38:01;;;;;;;25.77;4.03;;;13.80;99.90;;;;;;4889905;29;20405;-59
2022/06/10 06:40:29;;;;;;;22.42;3.15;;;13.80;99.90;;;;;;4886489;29;20942;-59
2022/06/10 06:42:57;;;;;;;25.33;2.63;;;13.90;99.90;;;;;;4885752;29;20052;-59
2022/06/10 06:45:25;;;;;;;23.75;3.53;;;14.00;99.90;;;;;;4884497;29;20044;-59
2022/06/10 06:48:03;;;;;;;26.10;5.72;;;14.10;99.90;;;;;;4882707;29;20053;-60
2022/06/10 06:50:32;;;;;;;;;;;14.10;99.90;;;;;;4882540;29;20061;-59
2022/06/10 06:53:00;;;;;;;22.27;2.95;;;14.10;99.90;;;;;;4887407;29;19923;-60
2022/06/10 06:55:35;;;;;;;24.02;4.43;;;14.10;99.90;;;;;;4878617;29;20045;-59
2022/06/10 06:58:04;;;;;;;20.85;3.10;;;14.10;99.90;;;;;;4882153;29;20048;-59
2022/06/10 07:00:32;;;;;;;23.00;3.67;;;14.10;99.90;;;;;;4880853;29;20048;-59
2022/06/10 07:03:00;;;;;;;22.13;3.67;;;14.10;99.90;;;;;;4888500;29;20083;-59
2022/06/10 07:05:28;;;;;;;23.58;3.63;;;14.00;99.90;;;;;;4874047;29;20052;-60
2022/06/10 07:07:55;;;;;;;24.30;3.15;;;14.20;99.90;;;;;;4879807;29;20080;-60
2022/06/10 07:10:24;;;;;;;30.98;3.42;;;14.30;99.90;;;;;;4884751;29;20051;-59
2022/06/10 07:12:52;;;;;;;18.47;4.77;;;14.30;99.90;;;;;;4884013;29;20052;-59
2022/06/10 07:15:21;;;;;;;20.98;3.60;;;14.30;99.90;;;;;;4887002;29;20068;-60
2022/06/10 07:17:49;;;;;;;26.95;4.18;;;14.50;99.90;;;;;;4875464;29;20056;-56
2022/06/10 07:20:33;;;;;;;22.25;3.80;;;14.60;99.90;;;;;;4889292;29;20477;-60
2022/06/10 07:23:02;;;;;;;24.75;3.75;;;14.70;99.90;;;;;;4886936;29;20629;-60
2022/06/10 07:25:31;;;;;;;24.95;3.55;;;14.80;99.90;;;;;;4886940;29;20037;-60
2022/06/10 07:27:59;;;;;;;15.68;2.63;;;14.90;99.90;;;;;;4886542;29;20052;-60
2022/06/10 07:30:31;;;;;;;17.88;2.65;;;14.90;99.90;;;;;;4881556;29;20413;-60
2022/06/10 07:32:59;;;;;;;19.45;3.17;;;15.00;99.90;;;;;;4877115;29;20044;-59
2022/06/10 07:35:28;;;;;;;28.85;3.42;;;15.20;99.90;;;;;;4875598;29;20513;-60
2022/06/10 07:37:57;;;;;;;22.38;4.75;;;15.20;99.90;;;;;;4886972;29;20048;-59
2022/06/10 07:43:39;;;;;;;19.35;2.55;;;15.40;99.90;;;;;;4892737;29;20056;-60
2022/06/10 07:46:09;;;;;;;18.73;2.97;;;15.50;99.90;;;;;;4889179;29;20041;-60
2022/06/10 07:48:37;;;;;;;25.67;5.45;;;15.60;99.90;;;;;;4893737;29;20052;-60
2022/06/10 07:51:05;;;;;;;29.02;3.25;;;15.60;99.90;;;;;;4891452;29;20048;-59
2022/06/10 07:53:33;;;;;;;17.83;3.55;;;15.70;99.90;;;;;;4889752;29;20040;-59
2022/06/10 07:56:03;;;;;;;20.52;2.95;;;15.70;99.90;;;;;;4890996;29;20043;-60
2022/06/10 07:58:30;;;;;;;23.63;3.92;;;15.80;99.90;;;;;;4892021;29;20059;-56
2022/06/10 08:00:58;;;;;;;21.73;3.22;;;15.90;99.90;;;;;;4885214;29;20057;-59
2022/06/10 08:03:27;;;;;;;19.00;2.78;;;15.90;99.90;;;;;;4885379;29;20048;-59
2022/06/10 08:05:56;;;;;;;31.13;5.28;;;15.90;99.90;;;;;;4892214;29;20052;-59
2022/06/10 08:08:24;;;;;;;29.33;3.97;;;15.90;99.90;;;;;;4895803;29;20049;-58
2022/06/10 08:10:52;;;;;;;24.92;3.03;;;15.90;99.90;;;;;;4896395;29;20055;-58
2022/06/10 08:13:20;;;;;;;15.13;3.17;;;15.90;99.90;;;;;;4891781;29;20052;-58
2022/06/10 08:15:48;;;;;;;20.67;3.47;;;16.00;99.90;;;;;;4895927;29;20049;-58
2022/06/10 08:18:19;;;;;;;17.00;3.10;;;16.10;99.90;;;;;;4886403;29;20056;-58
2022/06/10 08:23:35;;;;;;;27.35;3.53;;;16.40;99.90;;;;;;4896367;29;20552;-58
2022/06/10 08:26:07;;;;;;;15.18;2.63;;;16.60;99.90;;;;;;4885537;29;20056;-58
2022/06/10 08:28:41;;;;;;;16.58;2.92;;;16.70;99.90;;;;;;4885149;29;20064;-59
2022/06/10 08:31:09;;;;;;;23.67;3.38;;;16.70;99.90;;;;;;4885248;29;20045;-58
2022/06/10 08:33:37;;;;;;;18.77;2.80;;;16.70;99.90;;;;;;4890156;29;20044;-58
2022/06/10 08:36:06;;;;;;;24.95;3.28;;;16.70;99.90;;;;;;4892016;29;20048;-59
2022/06/10 08:38:34;;;;;;;22.13;2.60;;;16.60;99.90;;;;;;4893950;29;20052;-59
2022/06/10 08:41:32;;;;;;;19.55;2.83;;;16.60;99.90;;;;;;4888148;29;20060;-59
2022/06/10 08:44:21;;;;;;;22.02;2.58;;;16.50;99.90;;;;;;4886243;29;20056;-59
2022/06/10 08:47:20;;;;;;;17.02;2.40;;;16.50;99.90;;;;;;4890246;29;20056;-58
2022/06/10 08:50:21;;;;;;;16.35;3.10;;;16.50;99.90;;;;;;4876851;29;20056;-59
2022/06/10 08:53:04;;;;;;;20.05;3.22;;;16.40;99.90;;;;;;4887857;29;20409;-59
2022/06/10 08:55:54;;;;;;;13.60;2.22;;;16.40;99.90;;;;;;4886171;29;20048;-58
2022/06/10 08:58:28;;;;;;;16.08;3.95;;;16.40;99.90;;;;;;4889439;29;20056;-59
2022/06/10 09:01:01;;;;;;;14.85;3.33;;;16.20;99.90;;;;;;4897060;29;20410;-58
2022/06/10 09:03:59;;;;;;;21.08;3.10;;;16.10;99.90;;;;;;4891655;29;20056;-59
2022/06/10 09:06:38;;;;;;;17.15;2.55;;;16.00;99.90;;;;;;4876509;29;20049;-59
2022/06/10 09:09:09;;;;;;;15.13;1.98;;;16.00;99.90;;;;;;4892304;29;20504;-58
2022/06/10 09:11:57;;;;;;;16.65;2.42;;;16.00;99.90;;;;;;4895274;29;20064;-59
2022/06/10 09:14:27;;;;;;;15.43;2.65;;;15.90;99.90;;;;;;4893377;29;20060;-58
2022/06/10 09:17:17;;;;;;;15.40;2.47;;;16.00;99.90;;;;;;4887831;29;20045;-59
2022/06/10 09:19:51;;;;;;;26.15;5.05;;;16.10;99.90;;;;;;4879026;29;20044;-59
2022/06/10 09:22:23;;;;;;;14.73;2.47;;;16.10;99.90;;;;;;4895500;29;20056;-59
2022/06/10 09:25:08;;;;;;;14.65;2.28;;;16.30;99.90;;;;;;4889856;29;20405;-59
2022/06/10 09:27:39;;;;;;;16.27;2.25;;;16.30;99.90;;;;;;4888447;29;20409;-59
2022/06/10 09:30:11;;;;;;;23.17;2.95;;;16.50;99.90;;;;;;4889414;29;20052;-59
2022/06/10 09:32:57;;;;;;;15.00;2.50;;;16.60;99.90;;;;;;4869412;29;20638;-60
2022/06/10 09:35:40;;;;;;;16.35;2.03;;;16.60;99.90;;;;;;4888669;29;20052;-58
2022/06/10 09:38:24;;;;;;;17.13;2.33;;;16.80;99.90;;;;;;4884735;29;20048;-58
2022/06/10 09:41:10;;;;;;;12.27;2.08;;;16.90;99.90;;;;;;4880425;29;20040;-59
2022/06/10 09:44:01;;;;;;;21.95;2.70;;;17.00;99.90;;;;;;4888527;29;20052;-58
2022/06/10 09:46:58;;;;;;;19.58;2.67;;;17.20;99.90;;;;;;4873507;29;20053;-59
2022/06/10 09:50:00;;;;;;;19.52;2.60;;;17.40;99.90;;;;;;4880489;29;20417;-58
2022/06/10 09:52:34;;;;;;;13.68;3.55;;;17.60;99.90;;;;;;4888325;29;20045;-58
2022/06/10 09:55:38;;;;;;;15.38;1.80;;;17.60;99.90;;;;;;4876971;29;20402;-59
2022/06/10 09:58:17;;;;;;;22.08;3.45;;;17.70;99.90;;;;;;4876236;29;20059;-59
2022/06/10 10:01:09;;;;;;;14.07;2.03;;;17.70;99.90;;;;;;4889130;29;20626;-58
2022/06/10 10:03:40;;;;;;;15.13;2.33;;;17.90;99.90;;;;;;4889629;29;20045;-58
2022/06/10 10:06:29;;;;;;;15.13;2.20;;;18.00;99.90;;;;;;4886228;29;20064;-58
2022/06/10 10:09:33;;;;;;;14.38;2.15;;;18.10;99.90;;;;;;4882681;29;20044;-58
2022/06/10 10:12:24;;;;;;;14.48;2.50;;;18.00;99.90;;;;;;4874180;29;20524;-57
2022/06/10 10:15:09;;;;;;;15.75;2.95;;;18.00;99.90;;;;;;4867188;29;20049;-57
2022/06/10 10:18:03;;;;;;;10.80;1.88;;;18.10;99.90;;;;;;4876563;29;20057;-57
2022/06/10 10:20:50;;;;;;;12.80;2.38;;;18.30;99.90;;;;;;4886219;29;20045;-58
2022/06/10 10:23:25;;;;;;;17.48;2.30;;;18.60;99.90;;;;;;4883114;29;20044;-59
2022/06/10 10:25:55;;;;;;;13.85;2.60;;;18.90;99.90;;;;;;4888914;29;20040;-58
2022/06/10 10:28:34;;;;;;;16.40;2.33;;;19.20;99.90;;;;;;4888931;29;20063;-58
2022/06/10 10:31:25;;;;;;;12.93;2.40;;;19.40;99.90;;;;;;4890717;29;20052;-59
2022/06/10 10:34:01;;;;;;;13.18;2.15;;;19.50;99.90;;;;;;4870435;29;20417;-58
2022/06/10 10:36:30;;;;;;;16.95;3.38;;;19.50;99.90;;;;;;4879295;29;20072;-58
2022/06/10 10:39:11;;;;;;;11.90;2.10;;;19.50;99.90;;;;;;4885485;29;20053;-59
2022/06/10 10:41:42;;;;;;;12.02;2.00;;;19.40;99.90;;;;;;4883869;29;20056;-58
2022/06/10 10:44:31;;;;;;;9.48;1.63;;;19.30;99.90;;;;;;4877713;29;20055;-59
2022/06/10 10:47:15;;;;;;;13.03;2.10;;;19.10;99.90;;;;;;4870525;29;20056;-57
2022/06/10 10:49:52;;;;;;;11.07;1.85;;;18.90;99.90;;;;;;4874903;29;20047;-58
2022/06/10 10:52:34;;;;;;;13.77;2.00;;;18.70;99.90;;;;;;4881008;29;20055;-58
2022/06/10 10:55:25;;;;;;;15.73;2.63;;;18.70;99.90;;;;;;4890547;29;20063;-59
2022/06/10 10:58:02;;;;;;;11.63;2.85;;;18.70;99.90;;;;;;4890287;29;20401;-58
2022/06/10 11:00:36;;;;;;;16.13;1.95;;;18.90;99.90;;;;;;4884589;29;20609;-59
2022/06/10 11:03:04;;;;;;;13.63;2.10;;;19.20;99.90;;;;;;4878532;29;20059;-59
2022/06/10 11:05:36;;;;;;;13.50;2.53;;;19.30;99.90;;;;;;4888921;29;20068;-59
2022/06/10 11:08:12;;;;;;;16.40;2.00;;;19.40;99.90;;;;;;4883105;29;20437;-58
2022/06/10 11:11:02;;;;;;;9.95;1.65;;;19.50;99.90;;;;;;4861809;29;20049;-59
2022/06/10 11:13:53;;;;;;;12.13;1.70;;;19.70;99.90;;;;;;4884285;29;20048;-57
2022/06/10 11:16:26;;;;;;;13.95;2.33;;;19.90;99.90;;;;;;4876432;29;20048;-58
2022/06/10 11:19:00;;;;;;;14.02;1.80;;;20.10;99.90;;;;;;4878272;29;20044;-58
2022/06/10 11:21:28;;;;;;;8.48;1.38;;;20.20;99.90;;;;;;4874695;29;20145;-58
2022/06/10 11:23:58;;;;;;;10.48;1.63;;;20.30;99.70;;;;;;4891297;29;20049;-60
2022/06/10 11:26:26;;;;;;;8.93;1.20;;;20.40;99.60;;;;;;4882786;29;20409;-60
2022/06/10 11:29:02;;;;;;;7.97;1.35;;;20.70;98.80;;;;;;4888135;29;20085;-59
2022/06/10 11:31:43;;;;;;;11.48;1.55;;;20.60;97.30;;;;;;4883463;29;20056;-59
2022/06/10 11:34:39;;;;;;;13.38;2.40;;;20.50;97.00;;;;;;4875109;29;20049;-59
2022/06/10 11:37:27;;;;;;;18.25;2.13;;;20.80;97.80;;;;;;4886686;29;20064;-59
2022/06/10 11:40:14;;;;;;;8.57;1.63;;;20.90;96.70;;;;;;4876065;29;20049;-60
2022/06/10 11:42:48;;;;;;;12.55;1.95;;;21.20;95.20;;;;;;4890959;29;20037;-60
2022/06/10 11:45:24;;;;;;;14.15;1.85;;;21.30;94.70;;;;;;4893367;29;20056;-59
2022/06/10 11:47:59;;;;;;;12.85;1.60;;;21.30;94.20;;;;;;4887430;29;20041;-59
2022/06/10 11:50:54;;;;;;;10.45;2.00;;;21.40;94.00;;;;;;4893001;29;20146;-59
2022/06/10 11:53:37;;;;;;;13.57;2.08;;;21.60;94.20;;;;;;4872797;29;20057;-59
2022/06/10 11:59:45;;;;;;;8.82;1.90;;;22.20;93.60;;;;;;4892723;29;20041;-59
2022/06/10 12:02:22;;;;;;;10.43;2.20;;;22.40;92.10;;;;;;4885020;29;20393;-59
2022/06/10 12:05:05;;;;;;;12.90;1.80;;;22.30;90.60;;;;;;4891891;29;20539;-58
2022/06/10 12:07:36;;;;;;;23.33;2.10;;;22.30;89.50;;;;;;4888579;29;20064;-59
2022/06/10 12:10:10;;;;;;;11.10;2.47;;;22.20;90.00;;;;;;4894370;29;20061;-59
2022/06/10 12:12:41;;;;;;;14.48;1.80;;;22.30;91.30;;;;;;4892310;29;20048;-59
2022/06/10 12:15:24;;;;;;;10.40;1.70;;;22.80;91.60;;;;;;4890418;29;20052;-59
2022/06/10 12:17:57;;;;;;;9.57;2.08;;;23.20;85.80;;;;;;4891962;29;20607;-59
2022/06/10 12:20:38;;;;;;;14.20;1.98;;;23.50;85.00;;;;;;4867228;29;20048;-59
2022/06/10 12:23:25;;;;;;;8.00;1.88;;;23.80;85.20;;;;;;4891777;29;20041;-59
2022/06/10 12:26:12;;;;;;;10.32;2.40;;;24.20;85.30;;;;;;4890833;29;20045;-60
2022/06/10 12:28:45;;;;;;;13.40;1.60;;;24.40;80.40;;;;;;4890978;29;20055;-60
2022/06/10 12:31:22;;;;;;;10.93;1.65;;;24.40;79.20;;;;;;4888162;29;20053;-58
2022/06/10 12:34:31;;;;;;;13.30;2.40;;;24.30;80.10;;;;;;4892037;29;20201;-58
2022/06/10 12:37:10;;;;;;;12.90;2.28;;;24.50;77.60;;;;;;4893027;29;20079;-59
2022/06/10 12:39:53;;;;;;;8.80;1.30;;;24.20;75.80;;;;;;4890723;29;20056;-59
2022/06/10 12:42:56;;;;;;;8.90;1.65;;;23.70;76.10;;;;;;4889698;29;20307;-59
2022/06/10 12:45:33;;;;;;;7.47;1.25;;;23.30;77.50;;;;;;4897519;29;20404;-59
2022/06/10 12:48:11;;;;;;;6.65;1.90;;;23.10;76.90;;;;;;4884826;29;20067;-59
2022/06/10 12:50:57;;;;;;;12.18;2.17;;;23.00;79.90;;;;;;4893245;29;20512;-59
2022/06/10 12:53:48;;;;;;;8.73;1.80;;;23.10;78.60;;;;;;4894687;29;20049;-59
2022/06/10 12:56:26;;;;;;;11.93;1.52;;;23.10;76.50;;;;;;4895584;29;20057;-59
2022/06/10 12:59:14;;;;;;;13.23;1.83;;;23.20;76.60;;;;;;4889331;29;20500;-58
2022/06/10 13:01:45;;;;;;;8.18;1.75;;;23.60;73.00;;;;;;4887052;29;20048;-58
2022/06/10 13:04:25;;;;;;;20.13;2.92;;;23.90;71.60;;;;;;4892457;29;20049;-59
2022/06/10 13:07:00;;;;;;;11.32;2.35;;;24.10;73.10;;;;;;4885641;29;20417;-58
2022/06/10 13:09:37;;;;;;;9.98;1.60;;;24.40;73.10;;;;;;4889740;29;20048;-58
2022/06/10 13:12:07;;;;;;;9.60;1.92;;;24.70;72.80;;;;;;4895941;29;20052;-58
2022/06/10 13:14:43;;;;;;;10.95;1.85;;;24.90;73.30;;;;;;4896129;29;20068;-59
2022/06/10 13:17:19;;;;;;;7.47;1.50;;;25.10;70.90;;;;;;4892731;29;20060;-59
2022/06/10 13:19:53;;;;;;;9.32;1.83;;;25.40;70.50;;;;;;4889650;29;20048;-59
2022/06/10 13:22:21;;;;;;;14.02;2.28;;;25.70;68.50;;;;;;4877531;29;20053;-58
2022/06/10 13:24:52;;;;;;;22.58;1.90;;;26.00;68.90;;;;;;4889481;29;20056;-58
2022/06/10 13:27:26;;;;;;;15.18;1.73;;;26.30;68.60;;;;;;4893560;29;20056;-59
2022/06/10 13:30:13;;;;;;;17.40;2.22;;;26.50;67.10;;;;;;4893262;29;20628;-59
2022/06/10 13:32:50;;;;;;;12.23;1.63;;;26.50;66.40;;;;;;4890877;29;20048;-59
2022/06/10 13:35:33;;;;;;;12.02;1.98;;;26.30;66.20;;;;;;4895895;29;20060;-59
2022/06/10 13:38:14;;;;;;;12.90;1.77;;;26.10;63.70;;;;;;4889735;29;20154;-60